Lincoln Park, Michigan
Current Conditions -  °F | °C
As of 7:53 AM on Saturday 20 Dec 2014 (Local Time) from KDTW Reporting Station
Overcast Overcast  
Wind Chill: 27°   Ceiling: 2300
Heat Index: 27°   Visibility: 10mi
Dew Point: 21°   Wind: 3mph
Humidity: 78%   Direction: 20°NNE
Pressure: 30.3"   Gusts: NA
Location:  42.25°N, 83.18°W
Report Text: KDTW 201253Z 02003KT 10SM OVC023 M03/M06 A3030 RMK AO2 SLP270 T10281061 $
Loading
Personal Weather Stations






























Interactive Weather Map New forecast layout! Learn more

10-Day Weather Forecast

Advertisements
Track Severe Weather on mobile